createdAt,value
2023-07-18T00:02:36.686Z,6.89261744966443
2023-07-18T00:05:56.619Z,6.724832214765101
2023-07-18T00:09:17.145Z,6.093959731543624
2023-07-18T00:12:37.014Z,7.114093959731544
2023-07-18T00:16:32.550Z,6.456375838926174
2023-07-18T00:19:52.619Z,6.993288590604027
2023-07-18T00:23:13.770Z,6.570469798657718
2023-07-18T00:26:35.153Z,7.040268456375839
2023-07-18T00:32:29.867Z,6.751677852348993
2023-07-18T00:35:51.182Z,7.530201342281879
2023-07-18T00:39:11.265Z,7.100671140939597
2023-07-18T00:42:31.798Z,7.181208053691275
2023-07-18T00:47:14.477Z,7.402684563758389
2023-07-18T00:50:33.870Z,7.422818791946309
2023-07-18T00:53:53.642Z,7.382550335570469
2023-07-18T00:57:13.246Z,8.234899328859061
2023-07-18T01:05:34.569Z,7.845637583892618
2023-07-18T01:08:54.057Z,7.624161073825503
2023-07-18T01:12:14.257Z,8.194630872483222
2023-07-18T01:15:34.361Z,7.590604026845638
2023-07-18T01:19:43.381Z,8.825503355704697
2023-07-18T01:23:02.940Z,8.724832214765101
2023-07-18T01:26:23.551Z,8.966442953020135
2023-07-18T01:29:43.877Z,8.04026845637584
2023-07-18T01:33:04.660Z,8.812080536912752
2023-07-18T01:36:24.862Z,8.724832214765101
2023-07-18T01:39:48.893Z,8.61744966442953
2023-07-18T01:43:20.116Z,8.899328859060402
2023-07-18T01:46:40.188Z,8.89261744966443
2023-07-18T01:49:59.693Z,8.865771812080537
2023-07-18T01:53:19.934Z,8.87248322147651
2023-07-18T01:58:04.051Z,8.966442953020135
2023-07-18T02:01:24.432Z,9.496644295302014
2023-07-18T02:04:44.339Z,8.973154362416107
2023-07-18T02:08:03.738Z,8.51006711409396
2023-07-18T02:11:25.046Z,9.550335570469798
2023-07-18T02:14:44.545Z,8.389261744966444
2023-07-18T02:18:03.966Z,9.100671140939598
2023-07-18T02:24:27.711Z,9.483221476510067
2023-07-18T02:27:47.542Z,8.74496644295302
2023-07-18T02:31:08.227Z,9.026845637583893
2023-07-18T02:35:30.618Z,9.187919463087248
2023-07-18T02:38:50.399Z,9.073825503355705
2023-07-18T02:42:11.379Z,9.476510067114093
2023-07-18T02:45:31.815Z,9.429530201342281
2023-07-18T02:48:52.127Z,9.738255033557047
2023-07-18T02:52:13.380Z,10.04026845637584
2023-07-18T02:55:33.100Z,9.885906040268456
2023-07-18T02:58:53.164Z,9.335570469798657
2023-07-18T03:02:13.376Z,9.46979865771812
2023-07-18T03:05:33.263Z,9.429530201342281
2023-07-18T03:08:53.462Z,9.644295302013424
2023-07-18T03:12:13.655Z,9.946308724832214
2023-07-18T03:15:33.359Z,9.845637583892618
2023-07-18T03:18:55.988Z,10.14765100671141
2023-07-18T03:22:15.870Z,9.906040268456376
2023-07-18T03:25:35.661Z,9.395973154362416
2023-07-18T03:28:55.668Z,10.020134228187919
2023-07-18T03:32:15.786Z,10.93288590604027
2023-07-18T03:35:36.470Z,10.53020134228188
2023-07-18T03:38:56.710Z,10.738255033557047
2023-07-18T03:43:39.382Z,9.604026845637584
2023-07-18T03:47:54.740Z,9.416107382550335
2023-07-18T03:51:15.248Z,10.48993288590604
2023-07-18T03:54:35.930Z,9.818791946308725
2023-07-18T03:57:56.837Z,10.261744966442953
2023-07-18T04:01:17.417Z,9.953020134228188
2023-07-18T04:04:36.714Z,10.154362416107382
2023-07-18T04:07:57.102Z,9.805369127516778
2023-07-18T04:11:17.502Z,10.114093959731544
2023-07-18T04:14:37.394Z,10.476510067114093
2023-07-18T04:17:57.339Z,9.409395973154362
2023-07-18T04:21:17.486Z,10.295302013422818
2023-07-18T04:24:37.407Z,9.697986577181208
2023-07-18T04:28:24.268Z,9.74496644295302
2023-07-18T04:31:44.282Z,10.006711409395972
2023-07-18T04:35:04.636Z,10.21476510067114
2023-07-18T04:38:25.034Z,10.114093959731544
2023-07-18T04:41:54.686Z,9.906040268456376
2023-07-18T04:45:26.436Z,9.791946308724832
2023-07-18T04:48:46.516Z,9.953020134228188
2023-07-18T04:52:13.188Z,10.194630872483222
2023-07-18T04:55:53.912Z,9.818791946308725
2023-07-18T04:59:14.673Z,10.281879194630873
2023-07-18T05:02:34.489Z,9.85234899328859
2023-07-18T05:08:11.341Z,9.154362416107382
2023-07-18T05:12:12.204Z,9.51006711409396
2023-07-18T05:15:40.668Z,8.899328859060402
2023-07-18T05:18:59.891Z,9.38255033557047
2023-07-18T05:22:20.541Z,9.53020134228188
2023-07-18T05:25:41.615Z,8.61744966442953
2023-07-18T05:29:01.597Z,8.832214765100671
2023-07-18T05:32:22.100Z,8.812080536912752
2023-07-18T05:35:42.408Z,8.026845637583893
2023-07-18T05:39:02.066Z,9.060402684563758
2023-07-18T05:42:22.387Z,8.624161073825503
2023-07-18T05:48:35.635Z,8.087248322147651
2023-07-18T05:52:01.337Z,7.879194630872483
2023-07-18T05:55:22.089Z,8.395973154362416
2023-07-18T05:58:41.709Z,8.100671140939598
2023-07-18T06:02:01.500Z,8.375838926174497
2023-07-18T06:06:16.049Z,7.724832214765101
2023-07-18T06:09:35.941Z,7.442953020134228
2023-07-18T06:12:56.556Z,7.3355704697986575
2023-07-18T06:16:17.054Z,7.590604026845638
2023-07-18T06:20:18.173Z,6.738255033557047
2023-07-18T06:23:38.524Z,6.483221476510067
2023-07-18T06:28:41.449Z,6.442953020134228
2023-07-18T06:37:48.316Z,6.053691275167785
2023-07-18T06:41:08.810Z,6.268456375838926
2023-07-18T06:44:29.442Z,6.02013422818792
2023-07-18T06:47:49.862Z,5.778523489932886
2023-07-18T06:51:09.500Z,5.953020134228188
2023-07-18T06:54:30.173Z,6.194630872483222
2023-07-18T06:57:49.905Z,6.073825503355705
2023-07-18T07:01:09.798Z,5.959731543624161
2023-07-18T07:11:03.913Z,5.624161073825503
2023-07-18T07:15:41.070Z,5.140939597315437
2023-07-18T07:19:11.344Z,5.422818791946309
2023-07-18T07:22:31.648Z,5.624161073825503
2023-07-18T07:28:24.061Z,4.97986577181208
2023-07-18T07:31:44.438Z,4.429530201342282
2023-07-18T07:35:06.075Z,4.604026845637584
2023-07-18T07:38:26.384Z,5.530201342281879
2023-07-18T07:41:46.132Z,5.23489932885906
2023-07-18T07:45:05.373Z,4.946308724832215
2023-07-18T07:48:26.262Z,4.483221476510067
2023-07-18T07:53:48.407Z,4.6644295302013425
2023-07-18T07:57:08.650Z,4.422818791946309
2023-07-18T08:00:27.947Z,4.174496644295302
2023-07-18T08:03:47.785Z,3.6577181208053693
2023-07-18T08:07:10.270Z,3.7181208053691277
2023-07-18T08:10:32.284Z,3.48993288590604
2023-07-18T08:13:51.665Z,2.778523489932886
2023-07-18T08:18:26.620Z,2.8926174496644297
2023-07-18T08:21:46.513Z,2.040268456375839
2023-07-18T08:25:06.661Z,1.9865771812080537
2023-07-18T08:28:26.873Z,2.2348993288590604
2023-07-18T08:36:38.201Z,1.483221476510067
2023-07-18T08:39:57.760Z,1.2818791946308725
2023-07-18T08:43:17.843Z,1.1879194630872483
2023-07-18T08:46:37.069Z,1.523489932885906
2023-07-18T08:49:57.420Z,1.087248322147651
2023-07-18T08:53:18.635Z,0.9463087248322147
2023-07-18T08:59:15.462Z,1.4630872483221478
2023-07-18T09:04:40.225Z,1.342281879194631
2023-07-18T09:08:00.201Z,0.9798657718120806
2023-07-18T09:11:21.972Z,1.7248322147651007
2023-07-18T09:15:58.916Z,1.3557046979865772
2023-07-18T09:19:19.237Z,1.4228187919463087
2023-07-18T09:22:39.624Z,1.8053691275167785
2023-07-18T09:25:59.374Z,1.5100671140939597
2023-07-18T09:29:19.677Z,1.9798657718120805
2023-07-18T09:32:39.474Z,1.8724832214765101
2023-07-18T09:36:00.363Z,2.1543624161073827
2023-07-18T09:39:20.074Z,2.0134228187919465
2023-07-18T09:42:45.294Z,3.0067114093959733
2023-07-18T09:46:06.383Z,2.214765100671141
2023-07-18T09:52:51.674Z,1.5771812080536913
2023-07-18T09:57:24.374Z,1.8993288590604027
2023-07-18T10:02:14.545Z,2.0604026845637584
2023-07-18T10:05:35.050Z,1.523489932885906
2023-07-18T10:08:55.136Z,1.2147651006711409
2023-07-18T10:12:47.699Z,1.221476510067114
2023-07-18T10:18:08.507Z,1.5369127516778522
2023-07-18T10:21:28.930Z,1.3624161073825503
2023-07-18T10:24:48.879Z,2.046979865771812
2023-07-18T10:28:08.380Z,1.919463087248322
2023-07-18T10:31:27.903Z,1.7516778523489933
2023-07-18T10:34:48.239Z,2.1073825503355703
2023-07-18T10:38:09.140Z,2.1073825503355703
2023-07-18T10:41:29.267Z,2.302013422818792
2023-07-18T10:44:48.900Z,1.8523489932885906
2023-07-18T10:48:09.142Z,1.8053691275167785
2023-07-18T10:51:29.394Z,2.8859060402684564
2023-07-18T10:54:49.277Z,1.912751677852349
2023-07-18T10:58:09.058Z,2.248322147651007
2023-07-18T11:04:36.767Z,2.8456375838926173
2023-07-18T11:07:56.119Z,3.0738255033557045
2023-07-18T11:11:16.409Z,2.8053691275167787
2023-07-18T11:14:36.194Z,2.12751677852349
2023-07-18T11:17:56.272Z,2.4563758389261743
2023-07-18T11:21:15.853Z,2.6711409395973154
2023-07-18T11:24:35.744Z,2.1543624161073827
2023-07-18T11:27:55.643Z,1.8053691275167785
2023-07-18T11:31:26.584Z,2.2818791946308723
2023-07-18T11:39:06.154Z,1.4899328859060403
2023-07-18T11:42:25.822Z,1.2147651006711409
2023-07-18T11:45:45.316Z,1.6375838926174497
2023-07-18T11:49:05.478Z,0.8187919463087249
2023-07-18T11:52:26.004Z,0.3959731543624161
2023-07-18T11:55:45.452Z,0.8791946308724832
2023-07-18T11:59:06.172Z,0.9395973154362416
2023-07-18T12:07:17.183Z,0.6711409395973155
2023-07-18T12:10:37.694Z,0.5234899328859061
2023-07-18T12:17:09.795Z,2.4161073825503356
2023-07-18T12:20:29.988Z,3.1677852348993287
2023-07-18T12:23:49.531Z,3.315436241610738
2023-07-18T12:27:09.102Z,3.953020134228188
2023-07-18T12:30:28.989Z,5.4630872483221475
2023-07-18T12:33:48.466Z,5.583892617449664
2023-07-18T12:37:08.870Z,5.442953020134228
2023-07-18T12:40:28.874Z,5.845637583892618
2023-07-18T12:43:48.408Z,5.899328859060403
2023-07-18T12:47:08.096Z,5.912751677852349
2023-07-18T12:50:29.005Z,5.993288590604027
2023-07-18T12:53:49.203Z,4.973154362416107
2023-07-18T12:57:09.049Z,4.704697986577181
2023-07-18T13:00:29.365Z,5.25503355704698
2023-07-18T13:03:49.460Z,5.026845637583893
2023-07-18T13:07:09.669Z,5.369127516778524
2023-07-18T13:10:29.544Z,5.583892617449664
2023-07-18T13:13:49.339Z,5.718120805369128
2023-07-18T13:19:37.393Z,4.791946308724833
2023-07-18T13:22:56.555Z,4.302013422818792
2023-07-18T13:26:17.315Z,4.134228187919463
2023-07-18T13:29:37.148Z,4.449664429530201
2023-07-18T13:33:26.914Z,3.9060402684563758
2023-07-18T13:36:46.604Z,2.8993288590604025
2023-07-18T13:40:06.513Z,3.9932885906040267
2023-07-18T13:45:00.890Z,3.8456375838926173
2023-07-18T13:48:22.161Z,3.48993288590604
2023-07-18T13:51:41.688Z,3.2013422818791946
2023-07-18T13:55:01.161Z,3.966442953020134
2023-07-18T13:58:21.249Z,3.2550335570469797
2023-07-18T14:01:40.962Z,2.8859060402684564
2023-07-18T14:05:00.915Z,3.6711409395973154
2023-07-18T14:10:47.017Z,3.8053691275167787
2023-07-18T14:14:07.006Z,3.5436241610738257
2023-07-18T14:20:03.560Z,3.7315436241610738
2023-07-18T14:23:22.981Z,3.6442953020134228
2023-07-18T14:26:42.853Z,2.9865771812080535
2023-07-18T14:30:02.694Z,3.5503355704697985
2023-07-18T14:33:23.105Z,3.214765100671141
2023-07-18T14:39:29.302Z,3.879194630872483
2023-07-18T14:42:48.472Z,3.785234899328859
2023-07-18T14:46:09.182Z,3.208053691275168
2023-07-18T14:49:29.852Z,3.0201342281879193
2023-07-18T14:52:49.338Z,3.51006711409396
2023-07-18T14:56:09.301Z,2.6375838926174495
2023-07-18T14:59:29.521Z,2.295302013422819
2023-07-18T15:02:49.865Z,2.7651006711409396
2023-07-18T15:06:09.571Z,3.4832214765100673
2023-07-18T15:09:29.464Z,2.9261744966442955
2023-07-18T15:12:49.964Z,3.161073825503356
2023-07-18T15:16:10.080Z,3.12751677852349
2023-07-18T15:19:30.651Z,2.389261744966443
2023-07-18T15:26:48.816Z,2.7248322147651005
2023-07-18T15:30:08.496Z,1.4697986577181208
2023-07-18T15:33:29.217Z,1.3691275167785235
2023-07-18T15:36:49.501Z,2.2818791946308723
2023-07-18T15:40:09.993Z,2.3691275167785233
2023-07-18T15:45:17.514Z,2.221476510067114
2023-07-18T15:48:37.287Z,1.651006711409396
2023-07-18T15:51:57.638Z,1.5369127516778522
2023-07-18T15:55:19.427Z,2.295302013422819
2023-07-18T16:03:32.113Z,2.2751677852348995
2023-07-18T16:06:52.121Z,1.3355704697986577
2023-07-18T16:10:13.315Z,1.8053691275167785
2023-07-18T16:13:33.550Z,1.563758389261745
2023-07-18T16:16:53.737Z,2.221476510067114
2023-07-18T16:20:14.749Z,3.348993288590604
2023-07-18T16:27:14.200Z,4.7114093959731544
2023-07-18T16:31:30.954Z,2.1476510067114094
2023-07-18T16:34:51.182Z,1.9664429530201342
2023-07-18T16:38:13.442Z,2.134228187919463
2023-07-18T16:41:33.328Z,1.5838926174496644
2023-07-18T16:56:51.208Z,1.4966442953020134
2023-07-18T17:00:11.141Z,1.8053691275167785
2023-07-18T17:03:31.706Z,1.3020134228187918
2023-07-18T17:07:00.119Z,1.7986577181208054
2023-07-18T17:10:20.301Z,1.651006711409396
2023-07-18T17:13:41.202Z,1.7919463087248322
2023-07-18T17:17:16.747Z,1.74496644295302
2023-07-18T17:20:36.538Z,1.1610738255033557
2023-07-18T17:25:49.870Z,1.087248322147651
2023-07-18T17:29:09.693Z,1.4026845637583893
2023-07-18T17:32:45.771Z,1.4228187919463087
2023-07-18T17:45:15.459Z,1.1073825503355705
2023-07-18T17:48:34.771Z,1.395973154362416
2023-07-18T17:51:55.155Z,1.1409395973154361
2023-07-18T17:55:15.147Z,1.174496644295302
2023-07-18T18:04:29.632Z,1.738255033557047
2023-07-18T18:08:23.614Z,1.342281879194631
2023-07-18T18:12:01.836Z,1.7181208053691275
2023-07-18T18:34:37.659Z,0.785234899328859
2023-07-18T18:37:57.787Z,1.25503355704698
2023-07-18T18:41:19.516Z,1.651006711409396
2023-07-18T18:53:33.532Z,0.7449664429530202
2023-07-18T18:56:53.873Z,0.697986577181208
2023-07-18T19:00:14.626Z,0.6375838926174496
2023-07-18T19:03:35.995Z,1.3557046979865772
2023-07-18T19:08:18.779Z,1.2013422818791946
2023-07-18T19:12:17.885Z,1.261744966442953
2023-07-18T19:15:37.977Z,0.6845637583892618
2023-07-18T19:18:57.873Z,0.9395973154362416
2023-07-18T19:22:20.368Z,0.9395973154362416
2023-07-18T19:28:22.901Z,0.6308724832214765
2023-07-18T19:31:52.645Z,1.2953020134228188
2023-07-18T19:36:37.566Z,1.3758389261744965
2023-07-18T19:45:45.129Z,1.8187919463087248
2023-07-18T19:49:05.411Z,1.9395973154362416
2023-07-18T19:52:25.405Z,2.261744966442953
2023-07-18T19:57:07.917Z,2.0738255033557045
2023-07-18T20:00:56.782Z,2.295302013422819
2023-07-18T20:04:17.931Z,2.422818791946309
2023-07-18T20:08:18.219Z,2.389261744966443
2023-07-18T20:11:38.416Z,2.48993288590604
2023-07-18T20:14:58.713Z,2.1543624161073827
2023-07-18T20:18:20.126Z,2.12751677852349
2023-07-18T20:21:41.441Z,2.033557046979866
2023-07-18T20:25:07.686Z,3.214765100671141
2023-07-18T20:33:10.140Z,2.442953020134228
2023-07-18T20:36:30.788Z,2.422818791946309
2023-07-18T20:39:51.092Z,2.6040268456375837
2023-07-18T20:43:31.030Z,2.48993288590604
2023-07-18T20:46:50.308Z,2.3221476510067114
2023-07-18T20:53:16.363Z,1.9463087248322148
2023-07-18T20:56:36.129Z,2.8322147651006713
2023-07-18T20:59:56.529Z,2.389261744966443
2023-07-18T21:03:17.397Z,2.3758389261744965
2023-07-18T21:07:09.085Z,2.0939597315436242
2023-07-18T21:10:29.477Z,2.557046979865772
2023-07-18T21:16:16.189Z,3.912751677852349
2023-07-18T21:26:08.775Z,2.7114093959731544
2023-07-18T21:30:28.072Z,3.3758389261744965
2023-07-18T21:33:48.344Z,3.651006711409396
2023-07-18T21:37:08.764Z,3.6912751677852347
2023-07-18T21:40:29.343Z,3.684563758389262
2023-07-18T21:43:49.975Z,2.9328859060402683
2023-07-18T21:47:10.238Z,3.1006711409395975
2023-07-18T21:52:38.399Z,2.3221476510067114
2023-07-18T21:55:59.326Z,2.1812080536912752
2023-07-18T21:59:20.929Z,2.4295302013422817
2023-07-18T22:02:40.494Z,2.597315436241611
2023-07-18T22:06:00.544Z,2.966442953020134
2023-07-18T22:09:20.799Z,2.7583892617449663
2023-07-18T22:12:41.641Z,2.791946308724832
